Hauptseite
METAR-TAF:

METAR-TAF

Flughäfen :

Lleida-Alguaire

Lleida, Spanien

Breite: 41-43-40N, Länge: 000-32-09E, Höhe: 350 m

Beobachtung

Neuester Wetterbericht von vor 44 Minuten, um 10:00 UTC
Wind 2 kt aus unterschiedlichen Richtungen
Temperatur 4°C
Luftfeuchtigkeit 100%
Luftdruck 1021 hPa
Sichtweite: 0150 m
Nebel

METAR: LEDA 121000Z VRB02KT 0150 R31/0250N FG VV001 04/04 Q1021

Zeit: 11:44 (10:44 UTC)


TAF: fehlend

Wetterbeobachtungen und Prognosen von mehr als 4000 Flughäfen (METAR und TAF Bericht).

Die verfügbaren Stationen werden durch gelbe und rote Markierungen auf der Karte dargestellt.

Führen Sie die Maus auf sie, um den Namen der Station zu sehen.

Darauf klicken, um die Beobachtung von Wetterbeobachtungen und Prognosen zu sehen.

Um die Karte zu ändern : klicken Sie auf den grünen Tasten mit einem schwarzen Kreuz Zum Vergrößern, auf den grünen Button mit einem Gedankenstrich zu verkleinern, oder auf die grünen Pfeile für benachbarte Karten.


METAR-TAF: